Time;durP1;ratioP1;P1;durP2;ratioP2;P2;SDS_P1;SDS_P2;PMS_P1;PMS_P2;Temp;Humidity;BMP_temperature;BMP_pressure;BME280_temperature;BME280_humidity;BME280_pressure;Samples;Min_cycle;Max_cycle;Signal;HPM_P1;HPM_P2
2021/11/30 00:05:18;;;;;;;3.27;2.97;;;16.70;49.40;;;;;;10408050;28;20213;-65
2021/11/30 00:10:44;;;;;;;3.20;2.90;;;16.70;49.50;;;;;;10412668;28;20702;-65
2021/11/30 00:16:10;;;;;;;3.63;3.07;;;16.70;49.60;;;;;;10409294;28;20575;-65
2021/11/30 00:21:32;;;;;;;3.53;2.77;;;16.70;49.60;;;;;;10406826;28;20198;-65
2021/11/30 00:26:55;;;;;;;3.53;3.23;;;16.60;49.60;;;;;;10424347;28;20221;-65
2021/11/30 00:32:18;;;;;;;3.90;3.20;;;16.60;49.70;;;;;;10449217;28;20236;-65
2021/11/30 00:37:40;;;;;;;3.30;3.00;;;16.60;49.70;;;;;;10447429;28;20209;-65
2021/11/30 00:43:02;;;;;;;3.37;3.07;;;16.60;49.70;;;;;;10448677;28;20193;-65
2021/11/30 00:48:31;;;;;;;3.20;2.77;;;16.60;49.70;;;;;;10448630;28;20220;-65
2021/11/30 00:53:54;;;;;;;3.23;2.90;;;16.60;49.70;;;;;;10418824;28;20584;-65
2021/11/30 00:59:16;;;;;;;3.70;2.93;;;16.50;49.80;;;;;;10408113;28;20221;-65
2021/11/30 01:04:40;;;;;;;4.07;3.30;;;16.50;49.80;;;;;;10414473;28;20205;-65
2021/11/30 01:10:04;;;;;;;4.30;3.40;;;16.60;49.80;;;;;;10414557;28;20221;-65
2021/11/30 01:15:27;;;;;;;3.40;3.00;;;16.60;49.80;;;;;;10415070;28;20691;-65
2021/11/30 01:20:52;;;;;;;3.47;3.17;;;16.60;49.90;;;;;;10421700;28;20201;-65
2021/11/30 01:26:14;;;;;;;6.67;3.60;;;16.60;50.00;;;;;;10414592;28;20225;-65
2021/11/30 01:31:38;;;;;;;3.83;3.33;;;16.50;50.00;;;;;;10449127;28;20227;-65
2021/11/30 01:37:01;;;;;;;3.77;3.10;;;16.50;50.10;;;;;;10454866;28;20228;-65
2021/11/30 01:42:24;;;;;;;4.30;3.00;;;16.50;50.10;;;;;;10454133;28;20185;-65
2021/11/30 01:49:07;;;;;;;3.40;3.10;;;16.50;50.00;;;;;;10454406;28;20217;-65
2021/11/30 01:53:43;;;;;;;4.80;3.10;;;16.60;50.10;;;;;;10425470;28;20202;-65
2021/11/30 01:59:06;;;;;;;4.33;3.10;;;16.50;50.10;;;;;;10412177;28;20588;-65
2021/11/30 02:04:28;;;;;;;2.80;2.60;;;16.50;50.20;;;;;;10411954;28;20198;-65
2021/11/30 02:09:52;;;;;;;4.00;2.90;;;16.50;50.30;;;;;;10451008;28;20216;-65
2021/11/30 02:15:15;;;;;;;3.03;2.43;;;16.50;50.30;;;;;;10452692;28;20220;-65
2021/11/30 02:20:41;;;;;;;3.30;2.83;;;16.40;50.40;;;;;;10416661;28;20197;-65
2021/11/30 02:26:09;;;;;;;2.17;1.97;;;16.40;50.50;;;;;;10411068;28;20305;-65
2021/11/30 02:31:33;;;;;;;2.47;2.00;;;16.40;50.40;;;;;;10411394;28;20221;-65
2021/11/30 02:37:04;;;;;;;2.13;1.67;;;16.40;50.40;;;;;;10428999;28;20220;-65
2021/11/30 02:42:26;;;;;;;2.27;1.80;;;16.50;50.30;;;;;;10451914;28;20197;-65
2021/11/30 02:47:49;;;;;;;1.70;1.60;;;16.50;50.10;;;;;;10451148;28;20217;-65
2021/11/30 02:53:16;;;;;;;2.87;1.50;;;16.50;50.20;;;;;;10450780;28;20671;-65
2021/11/30 02:58:38;;;;;;;2.03;1.40;;;16.50;50.30;;;;;;10451294;28;20205;-65
2021/11/30 03:04:00;;;;;;;2.07;1.80;;;16.50;50.30;;;;;;10450581;28;20571;-64
2021/11/30 03:09:24;;;;;;;2.10;1.53;;;16.50;50.40;;;;;;10450984;28;20212;-64
2021/11/30 03:14:47;;;;;;;1.37;1.23;;;16.40;50.30;;;;;;10450964;28;20224;-64
2021/11/30 03:20:10;;;;;;;2.03;1.30;;;16.40;50.50;;;;;;10447268;28;20193;-64
2021/11/30 03:25:33;;;;;;;1.87;1.23;;;16.40;50.50;;;;;;10450800;28;20228;-64
2021/11/30 03:31:02;;;;;;;2.80;1.33;;;16.40;50.40;;;;;;10450754;28;20209;-64
2021/11/30 03:36:24;;;;;;;2.37;1.10;;;16.40;50.10;;;;;;10451014;28;20216;-65
2021/11/30 03:41:50;;;;;;;1.33;1.03;;;16.50;50.00;;;;;;10450455;28;20193;-64
2021/11/30 03:47:12;;;;;;;1.43;0.97;;;16.50;50.00;;;;;;10450080;28;20575;-64
2021/11/30 03:52:34;;;;;;;1.93;0.97;;;16.40;50.00;;;;;;10449853;28;20363;-64
2021/11/30 03:57:58;;;;;;;1.80;1.10;;;16.40;50.10;;;;;;10449670;28;20910;-64
2021/11/30 04:03:22;;;;;;;1.13;0.87;;;16.40;50.20;;;;;;10449255;28;20189;-64
2021/11/30 04:08:44;;;;;;;0.73;0.60;;;16.40;50.30;;;;;;10449483;28;20694;-64
2021/11/30 04:14:08;;;;;;;1.63;1.20;;;16.40;50.40;;;;;;10449574;28;20196;-65
2021/11/30 04:19:30;;;;;;;1.40;0.80;;;16.40;50.50;;;;;;10424341;28;20213;-64
2021/11/30 04:24:53;;;;;;;0.87;0.70;;;16.30;50.40;;;;;;10414295;28;20765;-64
2021/11/30 04:30:16;;;;;;;1.00;0.60;;;16.30;50.30;;;;;;10408056;28;20221;-64
2021/11/30 04:35:38;;;;;;;0.50;0.50;;;16.40;50.30;;;;;;10417516;28;20214;-64
2021/11/30 04:41:01;;;;;;;1.10;0.43;;;16.50;50.10;;;;;;10414609;28;20198;-64
2021/11/30 04:46:26;;;;;;;0.40;0.40;;;16.40;50.00;;;;;;10431506;28;20721;-64
2021/11/30 04:51:48;;;;;;;0.73;0.50;;;16.50;50.10;;;;;;10456032;28;20224;-64
2021/11/30 04:57:11;;;;;;;1.43;0.57;;;16.40;50.10;;;;;;10457393;28;20216;-64
2021/11/30 05:02:35;;;;;;;1.17;0.50;;;16.40;50.20;;;;;;10456069;28;20193;-64
2021/11/30 05:07:58;;;;;;;0.80;0.50;;;16.40;50.20;;;;;;10393367;22;20579;-62
2021/11/30 05:13:21;;;;;;;0.67;0.50;;;16.40;50.40;;;;;;10366791;28;20563;-62
2021/11/30 05:18:44;;;;;;;0.50;0.43;;;16.30;50.40;;;;;;10372121;28;20221;-60
2021/11/30 05:24:09;;;;;;;2.03;0.70;;;16.40;50.30;;;;;;10373419;28;20202;-61
2021/11/30 05:29:31;;;;;;;1.10;0.57;;;16.50;49.80;;;;;;10365086;28;20231;-60
2021/11/30 05:34:54;;;;;;;1.27;0.60;;;16.70;49.30;;;;;;10373015;28;20256;-61
2021/11/30 05:40:16;;;;;;;0.60;0.50;;;16.70;49.40;;;;;;10372138;28;20191;-62
2021/11/30 05:45:39;;;;;;;1.77;0.90;;;16.60;49.50;;;;;;10370696;28;20221;-60
2021/11/30 05:51:04;;;;;;;0.70;0.50;;;16.60;49.70;;;;;;10371838;28;20214;-62
2021/11/30 05:56:26;;;;;;;1.80;0.60;;;16.60;50.00;;;;;;10372369;28;20218;-60
2021/11/30 06:01:48;;;;;;;0.53;0.40;;;16.50;50.20;;;;;;10371230;28;20375;-61
2021/11/30 06:07:12;;;;;;;1.37;0.70;;;16.50;50.40;;;;;;10332572;28;20236;-62
2021/11/30 06:12:34;;;;;;;0.70;0.60;;;16.50;50.60;;;;;;10330640;28;20226;-63
2021/11/30 06:17:56;;;;;;;1.00;0.70;;;16.50;50.70;;;;;;10331853;28;20266;-62
2021/11/30 06:23:20;;;;;;;0.60;0.50;;;16.40;50.80;;;;;;10332295;28;20206;-61
2021/11/30 06:28:42;;;;;;;1.57;0.80;;;16.40;50.90;;;;;;10370471;28;20237;-62
2021/11/30 06:34:04;;;;;;;1.50;0.70;;;16.50;50.80;;;;;;10371070;28;20198;-62
2021/11/30 06:39:28;;;;;;;1.03;0.70;;;16.60;50.40;;;;;;10369522;28;20783;-62
2021/11/30 06:44:50;;;;;;;0.80;0.70;;;16.70;50.20;;;;;;10369173;28;20591;-63
2021/11/30 06:50:12;;;;;;;0.40;0.40;;;16.70;50.20;;;;;;10343948;28;20221;-62
2021/11/30 06:55:36;;;;;;;1.23;0.60;;;16.70;50.40;;;;;;10344968;28;20214;-63
2021/11/30 07:00:58;;;;;;;0.60;0.60;;;16.60;50.90;;;;;;10367141;28;20201;-62
2021/11/30 07:06:26;;;;;;;0.90;0.70;;;16.60;51.30;;;;;;10347341;28;20234;-64
2021/11/30 07:12:03;;;;;;;0.90;0.70;;;16.50;51.50;;;;;;10365930;28;20773;-61
2021/11/30 07:17:25;;;;;;;1.20;0.70;;;16.50;52.00;;;;;;10370428;28;20314;-62
2021/11/30 07:22:47;;;;;;;0.93;0.70;;;16.40;52.20;;;;;;10368928;28;20195;-64
2021/11/30 07:28:11;;;;;;;0.97;0.53;;;16.40;52.50;;;;;;10363897;28;20218;-59
2021/11/30 07:33:35;;;;;;;1.63;0.80;;;16.50;52.70;;;;;;10372224;28;20233;-61
2021/11/30 07:38:57;;;;;;;0.80;0.50;;;16.50;52.70;;;;;;10385544;28;20228;-62
2021/11/30 07:44:21;;;;;;;0.80;0.70;;;16.60;52.50;;;;;;10367065;28;20206;-59
2021/11/30 07:49:43;;;;;;;1.63;0.73;;;16.70;52.30;;;;;;10365325;28;20215;-60
2021/11/30 07:55:07;;;;;;;1.07;0.77;;;16.70;52.30;;;;;;10365761;28;20228;-63
2021/11/30 08:00:31;;;;;;;1.00;0.70;;;16.70;52.40;;;;;;10364291;28;20285;-60
2021/11/30 08:05:53;;;;;;;0.50;0.50;;;16.70;52.60;;;;;;10373274;28;20239;-62
2021/11/30 08:11:15;;;;;;;1.00;0.60;;;16.60;52.90;;;;;;10375563;28;20221;-61
2021/11/30 08:16:39;;;;;;;1.63;0.70;;;16.70;53.10;;;;;;10363761;28;20687;-61
2021/11/30 08:22:01;;;;;;;1.03;0.40;;;16.60;53.40;;;;;;10382844;28;20245;-63
2021/11/30 08:27:24;;;;;;;0.70;0.57;;;16.50;53.50;;;;;;10368666;28;20226;-60
2021/11/30 08:32:47;;;;;;;0.43;0.43;;;16.50;53.80;;;;;;10369991;28;20222;-61
2021/11/30 08:38:09;;;;;;;1.20;0.63;;;16.50;54.00;;;;;;10372300;28;20591;-58
2021/11/30 08:43:31;;;;;;;1.10;0.70;;;16.60;54.10;;;;;;10372807;28;20194;-59
2021/11/30 08:48:55;;;;;;;1.13;0.60;;;16.60;53.90;;;;;;10374813;28;20302;-61
2021/11/30 08:54:17;;;;;;;1.13;0.63;;;16.70;53.80;;;;;;10362488;28;20660;-63
2021/11/30 08:59:39;;;;;;;1.43;0.80;;;16.70;53.80;;;;;;10377535;28;20545;-60
2021/11/30 09:05:05;;;;;;;1.10;0.57;;;16.70;53.90;;;;;;10363248;28;20620;-62
2021/11/30 09:10:28;;;;;;;1.83;0.80;;;16.80;54.20;;;;;;10380767;28;20224;-61
2021/11/30 09:15:50;;;;;;;2.30;0.70;;;16.70;54.50;;;;;;10384258;28;20214;-62
2021/11/30 09:21:14;;;;;;;1.97;0.73;;;16.70;55.30;;;;;;10361182;28;20198;-61
2021/11/30 09:26:37;;;;;;;2.17;0.80;;;16.70;55.00;;;;;;10370254;28;20237;-58
2021/11/30 09:31:59;;;;;;;2.57;1.00;;;16.70;55.10;;;;;;10370885;28;20214;-58
2021/11/30 09:37:23;;;;;;;1.77;0.90;;;16.70;55.20;;;;;;10367308;28;20237;-58
2021/11/30 09:42:47;;;;;;;2.37;0.80;;;16.70;55.30;;;;;;10364719;28;20658;-61
2021/11/30 09:48:11;;;;;;;4.13;1.13;;;16.70;55.30;;;;;;10364023;28;20221;-61
2021/11/30 09:53:35;;;;;;;2.07;0.90;;;16.80;55.10;;;;;;10360073;28;20229;-59
2021/11/30 09:58:58;;;;;;;2.70;0.90;;;16.90;54.80;;;;;;10366598;28;20218;-61
2021/11/30 10:04:20;;;;;;;2.90;1.40;;;17.00;54.50;;;;;;10363813;28;20207;-62
2021/11/30 10:09:43;;;;;;;4.43;1.50;;;17.00;54.30;;;;;;10352021;28;20226;-63
2021/11/30 10:15:08;;;;;;;2.87;0.97;;;17.00;54.20;;;;;;10380329;28;20213;-63
2021/11/30 10:20:31;;;;;;;3.47;1.23;;;17.00;54.40;;;;;;10352911;28;20673;-62
2021/11/30 10:25:54;;;;;;;2.67;1.73;;;16.90;54.60;;;;;;10371283;28;20218;-60
2021/11/30 10:31:17;;;;;;;3.03;1.10;;;16.80;54.80;;;;;;10362974;28;20683;-63
2021/11/30 10:36:48;;;;;;;2.90;1.23;;;16.80;55.00;;;;;;10364215;28;20226;-62
2021/11/30 10:42:18;;;;;;;3.33;1.40;;;16.80;55.10;;;;;;10364921;28;20191;-63
2021/11/30 10:47:42;;;;;;;3.67;1.30;;;16.80;55.20;;;;;;10351664;28;20207;-63
2021/11/30 10:53:15;;;;;;;6.60;1.50;;;16.70;55.20;;;;;;10376585;28;20717;-63
2021/11/30 10:58:40;;;;;;;5.20;1.70;;;16.80;55.20;;;;;;10366190;28;20229;-58
2021/11/30 11:04:08;;;;;;;3.43;1.20;;;16.80;54.90;;;;;;10366133;28;20214;-62
2021/11/30 11:09:39;;;;;;;4.57;1.27;;;16.90;54.80;;;;;;10348528;28;20202;-59
2021/11/30 11:15:05;;;;;;;4.50;1.60;;;17.00;54.50;;;;;;10358777;28;20206;-62
2021/11/30 11:20:27;;;;;;;5.17;1.20;;;17.00;53.90;;;;;;10332683;28;20198;-61
2021/11/30 11:25:53;;;;;;;5.47;1.87;;;17.10;53.70;;;;;;10369255;28;20214;-58
2021/11/30 11:31:16;;;;;;;3.30;1.47;;;17.10;53.70;;;;;;10369866;28;20585;-59
2021/11/30 11:36:42;;;;;;;3.67;1.10;;;17.00;53.60;;;;;;10372047;28;20225;-61
2021/11/30 11:42:06;;;;;;;7.43;1.47;;;17.00;53.90;;;;;;10361046;28;20191;-59
2021/11/30 11:47:33;;;;;;;4.33;1.37;;;17.00;54.10;;;;;;10350274;28;20224;-59
2021/11/30 11:52:59;;;;;;;3.57;1.30;;;17.00;54.30;;;;;;10383120;23;20696;-65
2021/11/30 11:58:30;;;;;;;5.10;1.92;;;16.90;54.60;;;;;;10364499;28;20435;-64
2021/11/30 12:03:59;;;;;;;5.77;1.40;;;17.60;52.60;;;;;;10391519;28;20283;-65
2021/11/30 12:09:25;;;;;;;4.50;1.17;;;17.10;53.60;;;;;;10408423;28;20200;-65
2021/11/30 12:14:49;;;;;;;4.03;1.57;;;17.00;54.10;;;;;;10408287;28;20932;-64
2021/11/30 12:20:14;;;;;;;4.63;1.27;;;17.00;53.90;;;;;;10408364;28;20214;-64
2021/11/30 12:25:48;;;;;;;5.00;1.30;;;17.10;53.70;;;;;;10408058;28;20584;-64
2021/11/30 12:31:29;;;;;;;4.37;1.50;;;17.20;53.10;;;;;;10400565;28;20222;-64
2021/11/30 12:37:05;;;;;;;5.73;1.73;;;17.20;52.90;;;;;;10394054;28;20210;-64
2021/11/30 12:42:28;;;;;;;4.50;1.50;;;17.20;52.60;;;;;;10400981;28;20214;-65
2021/11/30 12:47:50;;;;;;;6.77;1.80;;;17.20;52.80;;;;;;10400623;28;20197;-65
2021/11/30 12:53:14;;;;;;;5.97;1.70;;;17.10;53.20;;;;;;10401103;28;20224;-67
2021/11/30 12:58:43;;;;;;;10.40;2.17;;;17.10;53.20;;;;;;10395269;28;20600;-68
2021/11/30 13:04:29;;;;;;;4.93;1.57;;;17.00;53.20;;;;;;10402470;28;20210;-67
2021/11/30 13:09:55;;;;;;;3.50;1.57;;;17.00;53.50;;;;;;10409214;28;20246;-66
2021/11/30 13:15:18;;;;;;;5.27;2.17;;;17.00;53.60;;;;;;10407989;28;20198;-68
2021/11/30 13:20:41;;;;;;;5.10;1.60;;;17.00;53.50;;;;;;10401091;28;20217;-68
2021/11/30 13:26:05;;;;;;;5.53;1.87;;;17.00;53.60;;;;;;10407165;28;20260;-67
2021/11/30 13:31:27;;;;;;;4.73;1.80;;;17.00;53.50;;;;;;10401293;28;20209;-66
2021/11/30 13:36:49;;;;;;;6.63;1.93;;;17.10;53.10;;;;;;10399956;28;20213;-68
2021/11/30 13:42:13;;;;;;;5.40;2.17;;;17.20;52.40;;;;;;10399516;28;20213;-64
2021/11/30 13:47:43;;;;;;;9.70;2.17;;;17.30;51.90;;;;;;10392286;28;20198;-64
2021/11/30 13:53:07;;;;;;;4.10;1.80;;;17.30;52.00;;;;;;10404994;28;20241;-63
2021/11/30 13:58:43;;;;;;;6.23;2.07;;;17.20;52.20;;;;;;10409067;28;20194;-63
2021/11/30 14:04:09;;;;;;;6.17;1.83;;;17.20;52.20;;;;;;10400566;28;20296;-63
2021/11/30 14:09:33;;;;;;;9.35;2.70;;;17.20;52.40;;;;;;10400920;28;20430;-65
2021/11/30 14:14:58;;;;;;;5.87;1.70;;;17.70;50.90;;;;;;10405016;28;20236;-65
2021/11/30 14:20:25;;;;;;;4.13;1.43;;;17.30;51.70;;;;;;10407324;28;20244;-66
2021/11/30 14:25:50;;;;;;;5.27;1.70;;;17.10;52.40;;;;;;10409859;28;20200;-65
2021/11/30 14:31:13;;;;;;;8.83;1.63;;;17.10;53.10;;;;;;10399774;28;20236;-65
2021/11/30 14:36:36;;;;;;;7.00;1.97;;;17.10;52.70;;;;;;10406588;28;20209;-65
2021/11/30 14:41:58;;;;;;;8.87;2.20;;;17.10;52.40;;;;;;10401771;28;20217;-65
2021/11/30 14:47:21;;;;;;;8.67;2.43;;;17.10;52.20;;;;;;10393901;28;20202;-65
2021/11/30 14:52:48;;;;;;;3.20;1.53;;;17.30;51.50;;;;;;10407404;28;20619;-66
2021/11/30 14:58:13;;;;;;;5.77;1.77;;;17.40;51.60;;;;;;10410347;28;20205;-65
2021/11/30 15:03:39;;;;;;;6.87;2.13;;;17.30;50.90;;;;;;10396274;28;20229;-66
2021/11/30 15:09:05;;;;;;;7.63;2.27;;;17.40;50.70;;;;;;10410541;28;20197;-66
2021/11/30 15:14:29;;;;;;;6.53;1.90;;;17.30;51.00;;;;;;10399836;28;20218;-65
2021/11/30 15:19:53;;;;;;;5.50;1.77;;;17.20;51.10;;;;;;10410937;28;20221;-65
2021/11/30 15:25:16;;;;;;;5.77;1.97;;;17.20;51.60;;;;;;10408387;28;20200;-64
2021/11/30 15:30:38;;;;;;;6.87;1.53;;;17.10;52.00;;;;;;10403259;28;20222;-65
2021/11/30 15:36:02;;;;;;;5.00;1.73;;;17.10;52.20;;;;;;10411028;28;20208;-65
2021/11/30 15:41:24;;;;;;;5.37;2.17;;;17.10;52.30;;;;;;10399331;28;20953;-65
2021/11/30 15:46:46;;;;;;;5.10;1.80;;;17.00;52.40;;;;;;10395851;28;20198;-65
2021/11/30 15:52:11;;;;;;;8.83;2.27;;;17.00;52.30;;;;;;10409646;28;20224;-64
2021/11/30 15:57:36;;;;;;;4.57;1.70;;;16.90;52.30;;;;;;10409373;28;20205;-65
2021/11/30 16:02:58;;;;;;;7.17;2.87;;;16.90;52.00;;;;;;10408103;28;20213;-65
2021/11/30 16:08:22;;;;;;;4.73;2.10;;;17.00;51.50;;;;;;10395780;28;20193;-64
2021/11/30 16:13:47;;;;;;;7.57;3.60;;;17.10;51.30;;;;;;10398749;28;20220;-65
2021/11/30 16:19:11;;;;;;;6.03;2.87;;;17.20;50.80;;;;;;10392176;28;20202;-68
2021/11/30 16:24:35;;;;;;;7.93;2.90;;;17.30;50.40;;;;;;10401104;28;20632;-69
2021/11/30 16:29:57;;;;;;;6.93;3.30;;;17.20;50.70;;;;;;10410572;28;20214;-67
2021/11/30 16:35:20;;;;;;;6.97;2.63;;;17.20;51.10;;;;;;10412693;28;20210;-66
2021/11/30 16:40:45;;;;;;;7.30;2.30;;;17.10;51.60;;;;;;10414326;28;20221;-66
2021/11/30 16:46:07;;;;;;;5.90;2.40;;;17.00;52.00;;;;;;10411055;28;20194;-68
2021/11/30 16:51:29;;;;;;;5.67;2.17;;;17.00;52.30;;;;;;10412368;28;20222;-67
2021/11/30 16:56:53;;;;;;;6.60;2.70;;;17.00;52.40;;;;;;10400360;28;20572;-66
2021/11/30 17:02:15;;;;;;;3.87;2.30;;;16.90;52.40;;;;;;10415380;28;20401;-66
2021/11/30 17:07:37;;;;;;;5.80;2.10;;;16.90;52.60;;;;;;10416480;28;20202;-66
2021/11/30 17:13:01;;;;;;;6.43;2.60;;;16.90;52.60;;;;;;10413183;28;20225;-66
2021/11/30 17:18:23;;;;;;;6.60;4.07;;;16.80;52.50;;;;;;10400565;28;20657;-67
2021/11/30 17:23:50;;;;;;;6.80;3.27;;;16.90;52.40;;;;;;10401254;28;20220;-66
2021/11/30 17:29:14;;;;;;;7.80;3.40;;;17.00;52.20;;;;;;10402220;28;20205;-65
2021/11/30 17:34:36;;;;;;;6.87;3.40;;;17.10;51.90;;;;;;10398055;28;20232;-61
2021/11/30 17:39:58;;;;;;;8.68;3.40;;;17.20;51.70;;;;;;10395135;28;20425;-64
2021/11/30 17:45:22;;;;;;;9.03;2.90;;;18.10;49.30;;;;;;10413793;28;20182;-64
2021/11/30 17:50:45;;;;;;;10.90;2.63;;;17.60;50.80;;;;;;10402521;28;20308;-67
2021/11/30 17:56:07;;;;;;;7.90;2.97;;;17.40;51.70;;;;;;10414639;28;20277;-66
2021/11/30 18:01:31;;;;;;;7.50;2.87;;;17.20;51.70;;;;;;10415866;28;20564;-65
2021/11/30 18:06:54;;;;;;;6.77;2.80;;;17.10;51.80;;;;;;10409259;28;20210;-65
2021/11/30 18:12:17;;;;;;;6.10;2.70;;;17.00;51.90;;;;;;10391209;28;20324;-64
2021/11/30 18:17:40;;;;;;;7.53;2.50;;;17.00;52.70;;;;;;10382708;28;20281;-66
2021/11/30 18:23:02;;;;;;;6.13;2.30;;;17.00;53.40;;;;;;10405624;28;20209;-65
2021/11/30 18:28:25;;;;;;;6.83;2.83;;;16.90;53.40;;;;;;10407851;28;20692;-65
2021/11/30 18:33:49;;;;;;;6.70;2.20;;;16.90;53.10;;;;;;10413284;28;20600;-65
2021/11/30 18:39:11;;;;;;;7.90;2.27;;;17.00;52.70;;;;;;10413955;28;20201;-64
2021/11/30 18:44:35;;;;;;;7.57;2.57;;;17.00;52.20;;;;;;10411859;28;20204;-64
2021/11/30 18:49:58;;;;;;;6.20;2.10;;;17.10;51.70;;;;;;10409071;28;20225;-65
2021/11/30 18:55:21;;;;;;;6.03;2.00;;;17.20;51.30;;;;;;10405505;28;20214;-65
2021/11/30 19:00:43;;;;;;;6.73;2.20;;;17.30;51.30;;;;;;10404848;28;20218;-66
2021/11/30 19:06:07;;;;;;;6.67;2.43;;;17.30;51.40;;;;;;10407724;28;20707;-65
2021/11/30 19:11:29;;;;;;;5.97;1.90;;;17.40;51.10;;;;;;10405812;28;20669;-66
2021/11/30 19:16:51;;;;;;;4.30;2.10;;;17.40;50.90;;;;;;10408006;28;20657;-63
2021/11/30 19:22:15;;;;;;;6.93;2.07;;;17.40;50.50;;;;;;10403601;28;20214;-65
2021/11/30 19:27:38;;;;;;;8.77;2.60;;;17.40;50.40;;;;;;10406255;28;20574;-65
2021/11/30 19:33:00;;;;;;;7.43;2.80;;;17.40;50.40;;;;;;10405325;28;20304;-63
2021/11/30 19:38:24;;;;;;;9.87;4.27;;;17.40;50.60;;;;;;10406218;28;20198;-64
2021/11/30 19:43:48;;;;;;;7.43;3.57;;;17.40;50.70;;;;;;10402568;28;20739;-65
2021/11/30 19:49:11;;;;;;;10.67;4.60;;;17.30;50.70;;;;;;10404221;28;20212;-65
2021/11/30 19:54:36;;;;;;;20.37;11.97;;;17.30;50.90;;;;;;10399166;28;20304;-64
2021/11/30 19:59:59;;;;;;;31.83;17.97;;;17.30;50.80;;;;;;10397686;28;20217;-66
2021/11/30 20:05:23;;;;;;;21.50;12.63;;;17.30;50.90;;;;;;10369275;28;20637;-66
2021/11/30 20:10:47;;;;;;;17.20;8.57;;;17.40;50.90;;;;;;10393499;28;20226;-66
2021/11/30 20:16:11;;;;;;;13.30;6.77;;;17.40;50.90;;;;;;10439285;23;20258;-67
2021/11/30 20:21:33;;;;;;;11.33;5.53;;;17.40;50.90;;;;;;10470993;28;20189;-68
2021/11/30 20:26:57;;;;;;;12.37;5.50;;;17.40;50.70;;;;;;10430984;28;20197;-67
2021/11/30 20:32:19;;;;;;;8.50;4.90;;;17.40;50.70;;;;;;10428840;28;20700;-67
2021/11/30 20:43:25;;;;;;;8.27;4.40;;;17.40;50.80;;;;;;10430021;28;20908;-67
2021/11/30 20:48:47;;;;;;;9.73;3.90;;;17.40;50.80;;;;;;10426689;28;20293;-68
2021/11/30 20:54:10;;;;;;;11.37;4.47;;;17.40;50.80;;;;;;10446239;28;20225;-67
2021/11/30 20:59:34;;;;;;;8.93;4.23;;;17.30;51.00;;;;;;10449570;28;20190;-68
2021/11/30 21:04:56;;;;;;;8.93;3.47;;;17.30;51.20;;;;;;10417426;28;20292;-68
2021/11/30 21:10:20;;;;;;;7.57;3.80;;;17.30;51.30;;;;;;10417327;28;20197;-68
2021/11/30 21:15:44;;;;;;;5.63;2.80;;;17.20;51.50;;;;;;10417298;28;20225;-68
2021/11/30 21:21:06;;;;;;;6.10;3.77;;;17.20;51.70;;;;;;10446664;28;20189;-67
2021/11/30 21:26:29;;;;;;;6.77;3.30;;;17.10;51.90;;;;;;10446015;28;20213;-68
2021/11/30 21:31:53;;;;;;;10.10;3.43;;;17.10;52.20;;;;;;10457038;28;20553;-68
2021/11/30 21:37:19;;;;;;;6.03;2.83;;;17.10;52.40;;;;;;10455759;28;20656;-68
2021/11/30 21:42:42;;;;;;;6.53;2.77;;;17.00;52.50;;;;;;10456654;28;20197;-68
2021/11/30 21:48:08;;;;;;;5.40;2.93;;;17.00;52.70;;;;;;10433969;28;20291;-67
2021/11/30 21:53:30;;;;;;;5.57;3.07;;;17.00;52.90;;;;;;10414026;28;20213;-67
2021/11/30 21:58:52;;;;;;;6.50;2.70;;;16.90;53.00;;;;;;10415487;28;20201;-68
2021/11/30 22:04:16;;;;;;;5.70;2.20;;;16.90;53.20;;;;;;10415154;28;20214;-68
2021/11/30 22:09:38;;;;;;;7.50;2.43;;;16.90;53.00;;;;;;10414327;28;20189;-68
2021/11/30 22:15:00;;;;;;;7.03;2.27;;;16.90;53.00;;;;;;10413258;28;20236;-68
2021/11/30 22:20:24;;;;;;;4.47;2.17;;;16.90;53.00;;;;;;10445461;28;20201;-68
2021/11/30 22:25:46;;;;;;;4.03;1.80;;;16.90;53.00;;;;;;10454181;28;20712;-68
2021/11/30 22:31:08;;;;;;;4.27;2.00;;;16.90;53.00;;;;;;10453324;28;20559;-67
2021/11/30 22:36:31;;;;;;;4.43;2.30;;;16.90;53.10;;;;;;10453885;28;20240;-68
2021/11/30 22:41:53;;;;;;;4.13;1.87;;;16.90;53.20;;;;;;10425751;28;20193;-68
2021/11/30 22:47:16;;;;;;;6.00;2.17;;;16.90;53.30;;;;;;10435396;28;20537;-67
2021/11/30 22:52:40;;;;;;;6.43;2.27;;;16.80;53.30;;;;;;10453108;28;20217;-67
2021/11/30 22:58:02;;;;;;;5.50;1.97;;;16.90;53.30;;;;;;10450281;28;20189;-67
2021/11/30 23:03:25;;;;;;;4.80;2.07;;;16.90;53.40;;;;;;10413817;28;20240;-68
2021/11/30 23:08:48;;;;;;;2.57;1.43;;;16.90;53.40;;;;;;10412933;28;20193;-67
2021/11/30 23:14:12;;;;;;;4.37;1.80;;;16.90;53.50;;;;;;10412372;28;20730;-68
2021/11/30 23:19:34;;;;;;;4.90;1.50;;;16.80;53.40;;;;;;10412621;28;20202;-68
2021/11/30 23:25:02;;;;;;;4.50;1.63;;;16.80;53.40;;;;;;10411237;28;20213;-68
2021/11/30 23:30:25;;;;;;;3.47;1.53;;;16.90;53.60;;;;;;10410905;28;20193;-68
2021/11/30 23:35:48;;;;;;;3.10;1.50;;;16.90;53.70;;;;;;10426007;28;20227;-68
2021/11/30 23:41:15;;;;;;;2.30;1.20;;;16.80;53.80;;;;;;10449939;28;20278;-68
2021/11/30 23:46:37;;;;;;;4.63;1.70;;;16.80;53.80;;;;;;10442956;28;20212;-68
2021/11/30 23:51:59;;;;;;;3.63;1.67;;;16.80;53.80;;;;;;10411441;28;20201;-68
2021/11/30 23:57:23;;;;;;;5.90;1.90;;;16.80;53.80;;;;;;10411280;28;20264;-67
